Time;durP1;ratioP1;P1;durP2;ratioP2;P2;SDS_P1;SDS_P2;PMS_P1;PMS_P2;Temp;Humidity;BMP_temperature;BMP_pressure;BME280_temperature;BME280_humidity;BME280_pressure;Samples;Min_cycle;Max_cycle;Signal;HPM_P1;HPM_P2
2021/08/02 00:00:09;;;;;;;;;;;;;;;13.93;83.67;99051.47;5034542;28;19943;-60
2021/08/02 00:02:36;;;;;;;;;;;;;;;13.95;83.54;99052.00;5034823;28;19913;-60
2021/08/02 00:05:02;;;;;;;;;;;;;;;13.95;83.54;99053.88;5049934;28;19990;-60
2021/08/02 00:07:27;;;;;;;;;;;;;;;13.91;84.02;99047.41;5043630;28;20274;-60
2021/08/02 00:09:53;;;;;;;;;;;;;;;13.90;83.94;99049.28;5034679;28;19917;-60
2021/08/02 00:12:26;;;;;;;;;;;;;;;13.90;84.05;99049.28;5034229;28;20269;-60
2021/08/02 00:14:51;;;;;;;;;;;;;;;13.84;84.11;99047.66;5033722;28;19924;-60
2021/08/02 00:17:17;;;;;;;;;;;;;;;13.82;84.36;99050.63;5034224;28;19921;-60
2021/08/02 00:19:42;;;;;;;;;;;;;;;13.79;84.69;99039.59;5034664;28;19917;-60
2021/08/02 00:22:07;;;;;;;;;;;;;;;13.72;84.67;99042.53;5034160;28;19921;-60
2021/08/02 00:24:32;;;;;;;;;;;;;;;13.71;84.62;99040.94;5033229;28;20371;-60
2021/08/02 00:26:58;;;;;;;;;;;;;;;13.72;84.75;99047.13;5033975;28;19921;-60
2021/08/02 00:29:23;;;;;;;;;;;;;;;13.67;84.81;99049.81;5034529;28;19973;-61
2021/08/02 00:31:48;;;;;;;;;;;;;;;13.71;84.76;99046.31;5034091;28;19921;-60
2021/08/02 00:34:14;;;;;;;;;;;;;;;13.63;85.09;99054.09;5034360;28;19921;-60
2021/08/02 00:36:51;;;;;;;;;;;;;;;13.50;85.97;99061.59;5032730;28;19927;-60
2021/08/02 00:39:33;;;;;;;;;;;;;;;13.44;86.55;99054.59;5034283;28;20364;-61
2021/08/02 00:41:59;;;;;;;;;;;;;;;13.42;87.02;99054.06;5034004;28;19921;-62
2021/08/02 00:44:43;;;;;;;;;;;;;;;13.39;86.96;99049.19;5034082;28;19921;-60
2021/08/02 00:47:12;;;;;;;;;;;;;;;13.32;87.57;99060.22;5033658;28;20004;-62
2021/08/02 00:49:39;;;;;;;;;;;;;;;13.25;87.89;99058.81;5034357;28;19923;-60
2021/08/02 00:52:04;;;;;;;;;;;;;;;13.25;88.27;99070.38;5033700;28;19960;-60
2021/08/02 00:54:29;;;;;;;;;;;;;;;13.25;88.20;99064.19;5032770;28;20375;-60
2021/08/02 00:56:56;;;;;;;;;;;;;;;13.25;88.17;99070.38;5032429;28;19921;-60
2021/08/02 00:59:21;;;;;;;;;;;;;;;13.24;88.26;99073.34;5034009;28;19924;-60
2021/08/02 01:01:46;;;;;;;;;;;;;;;13.31;88.31;99068.56;5033396;28;19922;-60
2021/08/02 01:04:12;;;;;;;;;;;;;;;13.25;88.29;99072.25;5033805;28;19921;-60
2021/08/02 01:06:38;;;;;;;;;;;;;;;13.20;88.65;99064.97;5051795;28;19927;-60
2021/08/02 01:09:04;;;;;;;;;;;;;;;13.23;88.61;99067.16;5012778;28;20020;-60
2021/08/02 01:11:29;;;;;;;;;;;;;;;13.22;88.67;99070.09;5025605;28;19921;-60
2021/08/02 01:13:55;;;;;;;;;;;;;;;13.13;88.78;99067.94;5032584;28;20004;-60
2021/08/02 01:16:20;;;;;;;;;;;;;;;13.21;88.35;99073.88;5032024;28;20379;-60
2021/08/02 01:18:45;;;;;;;;;;;;;;;13.24;87.83;99071.47;5033602;28;19917;-60
2021/08/02 01:21:12;;;;;;;;;;;;;;;13.22;88.09;99075.50;5031998;28;20004;-60
2021/08/02 01:23:37;;;;;;;;;;;;;;;13.20;88.08;99077.63;5033442;28;19979;-60
2021/08/02 01:26:03;;;;;;;;;;;;;;;13.17;88.26;99077.09;5032953;28;19925;-60
2021/08/02 01:28:28;;;;;;;;;;;;;;;13.09;88.37;99077.59;5033352;28;20363;-60
2021/08/02 01:30:57;;;;;;;;;;;;;;;13.01;89.43;99070.03;5032943;28;19932;-60
2021/08/02 01:33:29;;;;;;;;;;;;;;;13.01;89.25;99070.03;5033237;28;19917;-60
2021/08/02 01:36:01;;;;;;;;;;;;;;;13.07;89.24;99074.34;5033120;28;19929;-61
2021/08/02 01:38:26;;;;;;;;;;;;;;;13.08;89.08;99065.22;5033496;28;19979;-61
2021/08/02 01:40:52;;;;;;;;;;;;;;;13.03;89.22;99072.44;5031459;28;19921;-61
2021/08/02 01:43:17;;;;;;;;;;;;;;;13.13;88.83;99067.94;5033306;28;19924;-60
2021/08/02 01:46:01;;;;;;;;;;;;;;;13.10;88.80;99068.47;5032816;28;19921;-60
2021/08/02 01:48:45;;;;;;;;;;;;;;;12.99;89.03;99068.69;5032713;28;20388;-60
2021/08/02 01:51:13;;;;;;;;;;;;;;;12.96;89.34;99072.69;5032800;28;20379;-60
2021/08/02 01:53:38;;;;;;;;;;;;;;;12.93;89.56;99078.59;5033201;28;19975;-61
2021/08/02 01:56:07;;;;;;;;;;;;;;;12.86;89.92;99067.28;5032642;28;19925;-60
2021/08/02 01:58:40;;;;;;;;;;;;;;;12.88;89.61;99075.88;5031818;28;19909;-61
2021/08/02 02:01:05;;;;;;;;;;;;;;;12.93;89.35;99079.41;5031607;28;20024;-61
2021/08/02 02:03:31;;;;;;;;;;;;;;;13.01;88.62;99078.09;5033034;28;20406;-60
2021/08/02 02:06:00;;;;;;;;;;;;;;;12.90;89.23;99074.56;5032309;28;19921;-61
2021/08/02 02:08:28;;;;;;;;;;;;;;;12.83;89.31;99081.22;5032984;28;19921;-61
2021/08/02 02:10:55;;;;;;;;;;;;;;;12.74;89.64;99081.72;5031488;28;19924;-61
2021/08/02 02:13:21;;;;;;;;;;;;;;;12.72;89.85;99083.84;5033071;28;19921;-60
2021/08/02 02:15:51;;;;;;;;;;;;;;;12.69;89.95;99083.56;5032774;28;19921;-60
2021/08/02 02:18:16;;;;;;;;;;;;;;;12.63;90.04;99085.44;5034005;28;20011;-60
2021/08/02 02:20:43;;;;;;;;;;;;;;;12.59;90.17;99084.31;5036534;28;19928;-60
2021/08/02 02:23:08;;;;;;;;;;;;;;;12.59;90.39;99087.00;5036752;28;19917;-60
2021/08/02 02:25:33;;;;;;;;;;;;;;;12.57;90.19;99081.06;5035059;28;20264;-61
2021/08/02 02:27:59;;;;;;;;;;;;;;;12.66;90.00;99094.84;5037014;28;19917;-62
2021/08/02 02:30:24;;;;;;;;;;;;;;;12.69;89.63;99087.06;5036301;28;19921;-60
2021/08/02 02:32:50;;;;;;;;;;;;;;;12.65;89.82;99085.16;5035610;28;19924;-62
2021/08/02 02:35:15;;;;;;;;;;;;;;;12.73;89.41;99085.50;5035122;28;19948;-62
2021/08/02 02:37:40;;;;;;;;;;;;;;;12.73;89.16;99088.19;5035591;28;19924;-62
2021/08/02 02:40:06;;;;;;;;;;;;;;;12.78;89.19;99089.25;5035006;28;19917;-59
2021/08/02 02:42:31;;;;;;;;;;;;;;;12.82;88.94;99087.69;5035410;28;19913;-62
2021/08/02 02:44:57;;;;;;;;;;;;;;;12.85;88.75;99085.25;5035514;28;19918;-65
2021/08/02 02:47:22;;;;;;;;;;;;;;;12.77;88.98;99079.59;5034930;28;19925;-62
2021/08/02 02:49:47;;;;;;;;;;;;;;;12.86;88.94;99089.59;5035282;28;20016;-62
2021/08/02 02:52:25;;;;;;;;;;;;;;;12.93;88.20;99084.78;5034775;28;19921;-62
2021/08/02 02:54:50;;;;;;;;;;;;;;;12.95;87.99;99087.19;5035243;28;19917;-61
2021/08/02 02:57:15;;;;;;;;;;;;;;;13.03;87.75;99093.97;5034674;28;19922;-62
2021/08/02 02:59:44;;;;;;;;;;;;;;;12.98;88.02;99094.78;5036192;28;19917;-62
2021/08/02 03:02:09;;;;;;;;;;;;;;;12.96;87.96;99094.22;5033604;28;19922;-62
2021/08/02 03:04:35;;;;;;;;;;;;;;;13.02;87.60;99097.75;5015056;28;20001;-61
2021/08/02 03:07:00;;;;;;;;;;;;;;;13.04;87.58;99095.59;5032226;28;20398;-62
2021/08/02 03:09:27;;;;;;;;;;;;;;;13.00;87.98;99095.28;5035184;28;19953;-61
2021/08/02 03:11:52;;;;;;;;;;;;;;;13.04;87.42;99096.41;5034206;28;19925;-61
2021/08/02 03:14:17;;;;;;;;;;;;;;;13.11;87.45;99094.28;5035900;28;19924;-62
2021/08/02 03:16:43;;;;;;;;;;;;;;;13.00;87.68;99100.69;5035479;28;20000;-61
2021/08/02 03:19:08;;;;;;;;;;;;;;;12.96;88.29;99091.53;5035767;28;19924;-62
2021/08/02 03:21:33;;;;;;;;;;;;;;;13.03;87.70;99099.34;5035421;28;19964;-61
2021/08/02 03:23:58;;;;;;;;;;;;;;;13.02;87.39;99092.34;5035773;28;19963;-61
2021/08/02 03:26:25;;;;;;;;;;;;;;;12.99;87.59;99088.31;5035369;28;19980;-61
2021/08/02 03:28:55;;;;;;;;;;;;;;;13.02;87.51;99089.66;5034304;28;20371;-62
2021/08/02 03:31:21;;;;;;;;;;;;;;;12.96;87.64;99094.22;5032836;28;20440;-62
2021/08/02 03:33:46;;;;;;;;;;;;;;;12.97;87.53;99084.25;5034355;28;20056;-62
2021/08/02 03:36:13;;;;;;;;;;;;;;;13.01;87.20;99090.75;5033803;28;19940;-62
2021/08/02 03:38:38;;;;;;;;;;;;;;;13.05;87.70;99086.44;5034544;28;19917;-62
2021/08/02 03:41:06;;;;;;;;;;;;;;;13.04;87.31;99096.41;5035260;28;20339;-61
2021/08/02 03:43:35;;;;;;;;;;;;;;;12.96;87.89;99091.53;5034070;28;19935;-61
2021/08/02 03:46:00;;;;;;;;;;;;;;;12.88;88.08;99100.06;5033436;28;19967;-61
2021/08/02 03:48:26;;;;;;;;;;;;;;;12.87;88.28;99101.16;5034756;28;19913;-61
2021/08/02 03:50:51;;;;;;;;;;;;;;;12.77;88.87;99107.28;5034910;28;19921;-61
2021/08/02 03:53:16;;;;;;;;;;;;;;;12.83;89.61;99103.56;5035194;28;19956;-61
2021/08/02 03:55:43;;;;;;;;;;;;;;;12.68;89.85;99108.81;5034633;28;19971;-61
2021/08/02 03:58:08;;;;;;;;;;;;;;;12.66;90.60;99108.28;5017374;28;19923;-61
2021/08/02 04:00:33;;;;;;;;;;;;;;;12.67;90.71;99107.22;5034658;28;19924;-61
2021/08/02 04:02:59;;;;;;;;;;;;;;;12.54;91.15;99103.09;5034620;28;19928;-61
2021/08/02 04:05:24;;;;;;;;;;;;;;;12.50;91.51;99104.66;5034490;28;19921;-61
2021/08/02 04:07:49;;;;;;;;;;;;;;;12.54;91.68;99119.22;5034738;28;19913;-61
2021/08/02 04:10:15;;;;;;;;;;;;;;;12.59;91.90;99111.19;5034243;28;19924;-61
2021/08/02 04:12:40;;;;;;;;;;;;;;;12.60;91.45;99112.81;5034417;28;19917;-61
2021/08/02 04:15:06;;;;;;;;;;;;;;;12.53;91.85;99117.63;5033839;28;20020;-61
2021/08/02 04:17:31;;;;;;;;;;;;;;;12.63;91.44;99120.38;5034462;28;20054;-60
2021/08/02 04:19:56;;;;;;;;;;;;;;;12.66;90.99;99116.38;5034554;28;19917;-61
2021/08/02 04:22:22;;;;;;;;;;;;;;;12.60;91.24;99120.06;5034284;28;19999;-61
2021/08/02 04:24:47;;;;;;;;;;;;;;;12.63;91.50;99112.31;5034653;28;19917;-61
2021/08/02 04:27:12;;;;;;;;;;;;;;;12.51;91.41;99111.69;5033907;28;19922;-61
2021/08/02 04:29:37;;;;;;;;;;;;;;;12.55;91.43;99118.16;5034617;28;19918;-61
2021/08/02 04:32:03;;;;;;;;;;;;;;;12.57;91.12;99113.31;5034109;28;19991;-61
2021/08/02 04:34:28;;;;;;;;;;;;;;;12.59;91.03;99121.16;5034516;28;19917;-61
2021/08/02 04:36:53;;;;;;;;;;;;;;;12.66;91.04;99117.16;5034012;28;20008;-61
2021/08/02 04:39:18;;;;;;;;;;;;;;;12.63;90.92;99120.38;5034354;28;20421;-61
2021/08/02 04:41:44;;;;;;;;;;;;;;;12.49;91.44;99121.88;5033689;28;19995;-61
2021/08/02 04:44:09;;;;;;;;;;;;;;;12.61;91.60;99119.81;5034297;28;20012;-61
2021/08/02 04:46:34;;;;;;;;;;;;;;;12.59;91.28;99119.25;5033760;28;20271;-61
2021/08/02 04:49:00;;;;;;;;;;;;;;;12.76;90.80;99115.63;5034120;28;19917;-61
2021/08/02 04:51:25;;;;;;;;;;;;;;;12.50;91.70;99112.72;5033770;28;19921;-61
2021/08/02 04:53:50;;;;;;;;;;;;;;;12.61;91.41;99108.25;5033907;28;20352;-61
2021/08/02 04:56:15;;;;;;;;;;;;;;;12.73;90.48;99112.38;5033434;28;19921;-61
2021/08/02 04:58:41;;;;;;;;;;;;;;;12.86;90.36;99115.69;5034080;28;19917;-61
2021/08/02 05:01:06;;;;;;;;;;;;;;;12.89;89.81;99121.34;5033441;28;20390;-61
2021/08/02 05:03:31;;;;;;;;;;;;;;;13.03;89.20;99120.88;5033612;28;19927;-61
2021/08/02 05:05:56;;;;;;;;;;;;;;;14.01;86.61;99122.88;5033411;28;20299;-61
2021/08/02 05:08:22;;;;;;;;;;;;;;;16.20;77.18;99131.47;5033891;28;20019;-61
2021/08/02 05:10:47;;;;;;;;;;;;;;;16.38;74.78;99128.06;5033420;28;20394;-61
2021/08/02 05:13:12;;;;;;;;;;;;;;;14.99;79.42;99123.66;5032244;28;20287;-61
2021/08/02 05:15:38;;;;;;;;;;;;;;;15.08;81.02;99130.13;5033182;28;19921;-61
2021/08/02 05:18:03;;;;;;;;;;;;;;;14.44;82.24;99143.09;5033448;28;19917;-61
2021/08/02 05:20:28;;;;;;;;;;;;;;;14.17;84.34;99139.84;5032990;28;20332;-61
2021/08/02 05:22:53;;;;;;;;;;;;;;;13.89;85.60;99133.88;5033769;28;19928;-61
2021/08/02 05:25:19;;;;;;;;;;;;;;;13.64;87.39;99142.72;5032937;28;19932;-61
2021/08/02 05:27:48;;;;;;;;;;;;;;;13.69;87.49;99142.72;5033510;28;19922;-61
2021/08/02 05:30:15;;;;;;;;;;;;;;;13.55;87.64;99139.72;5033099;28;19963;-61
2021/08/02 05:32:40;;;;;;;;;;;;;;;13.48;87.56;99136.47;5033201;28;19971;-61
2021/08/02 05:35:05;;;;;;;;;;;;;;;13.56;86.78;99135.16;5032978;28;19993;-61
2021/08/02 05:37:30;;;;;;;;;;;;;;;13.65;86.49;99138.13;5032308;28;19910;-61
2021/08/02 05:39:56;;;;;;;;;;;;;;;13.53;86.98;99152.63;5033245;28;19917;-61
2021/08/02 05:42:21;;;;;;;;;;;;;;;13.93;86.37;99151.16;5033000;28;19917;-61
2021/08/02 05:44:46;;;;;;;;;;;;;;;13.76;86.01;99147.88;5033221;28;20291;-61
2021/08/02 05:47:14;;;;;;;;;;;;;;;13.63;86.55;99156.41;5032667;28;19974;-61
2021/08/02 05:49:39;;;;;;;;;;;;;;;13.66;87.07;99145.16;5032239;28;19913;-61
2021/08/02 05:52:04;;;;;;;;;;;;;;;13.49;87.45;99150.72;5032271;28;19932;-61
2021/08/02 05:54:29;;;;;;;;;;;;;;;13.59;87.75;99158.84;5036405;28;19924;-61
2021/08/02 05:56:55;;;;;;;;;;;;;;;13.66;87.23;99150.53;5036816;28;20287;-61
2021/08/02 05:59:20;;;;;;;;;;;;;;;13.58;86.99;99154.53;5037240;28;19917;-61
2021/08/02 06:01:45;;;;;;;;;;;;;;;13.59;87.07;99148.06;5036682;28;19921;-61
2021/08/02 06:04:10;;;;;;;;;;;;;;;13.58;87.20;99141.09;5035688;28;19921;-61
2021/08/02 06:06:36;;;;;;;;;;;;;;;13.84;86.19;99139.25;5036731;28;19921;-61
2021/08/02 06:09:01;;;;;;;;;;;;;;;13.98;85.96;99143.06;5035565;28;20034;-61
2021/08/02 06:11:26;;;;;;;;;;;;;;;13.91;85.79;99155.19;5036506;28;19936;-61
2021/08/02 06:13:51;;;;;;;;;;;;;;;13.62;86.91;99154.81;5037095;28;19945;-62
2021/08/02 06:16:21;;;;;;;;;;;;;;;13.59;87.80;99151.56;5035232;28;19921;-61
2021/08/02 06:18:47;;;;;;;;;;;;;;;13.69;87.49;99152.69;5036961;28;19917;-61
2021/08/02 06:21:12;;;;;;;;;;;;;;;13.98;86.58;99153.84;5036650;28;19921;-61
2021/08/02 06:23:37;;;;;;;;;;;;;;;13.80;87.09;99157.03;5036617;28;19925;-61
2021/08/02 06:26:02;;;;;;;;;;;;;;;13.78;87.72;99160.00;5036425;28;19921;-61
2021/08/02 06:28:28;;;;;;;;;;;;;;;14.02;86.20;99165.69;5036813;28;20279;-61
2021/08/02 06:30:53;;;;;;;;;;;;;;;14.08;85.81;99163.00;5036373;28;19928;-61
2021/08/02 06:33:19;;;;;;;;;;;;;;;13.97;86.55;99162.19;5036541;28;19917;-61
2021/08/02 06:35:45;;;;;;;;;;;;;;;13.86;86.53;99163.25;5036115;28;19932;-61
2021/08/02 06:38:10;;;;;;;;;;;;;;;14.16;85.21;99162.50;5036801;28;19917;-62
2021/08/02 06:40:35;;;;;;;;;;;;;;;14.10;85.09;99167.06;5036241;28;19927;-61
2021/08/02 06:43:00;;;;;;;;;;;;;;;14.09;85.18;99172.72;5036336;28;19927;-62
2021/08/02 06:45:26;;;;;;;;;;;;;;;13.84;85.86;99162.69;5035589;28;19972;-61
2021/08/02 06:47:54;;;;;;;;;;;;;;;14.12;84.97;99169.50;5036313;28;20004;-61
2021/08/02 06:50:19;;;;;;;;;;;;;;;13.99;85.02;99170.81;5036031;28;19917;-61
2021/08/02 06:52:44;;;;;;;;;;;;;;;14.05;84.88;99169.75;5036200;28;20024;-62
2021/08/02 06:55:10;;;;;;;;;;;;;;;14.09;84.73;99172.72;5035739;28;19917;-61
2021/08/02 06:57:36;;;;;;;;;;;;;;;14.13;84.87;99171.13;5036085;28;19940;-61
2021/08/02 07:00:01;;;;;;;;;;;;;;;14.36;84.02;99176.00;5034440;28;19921;-61
2021/08/02 07:02:26;;;;;;;;;;;;;;;14.56;82.78;99177.13;5036100;28;19917;-61
2021/08/02 07:04:52;;;;;;;;;;;;;;;14.44;83.59;99182.75;5035764;28;20059;-60
2021/08/02 07:07:17;;;;;;;;;;;;;;;14.48;83.09;99180.31;5035063;28;19921;-61
2021/08/02 07:09:42;;;;;;;;;;;;;;;14.63;82.19;99180.38;5036004;28;20390;-61
2021/08/02 07:12:08;;;;;;;;;;;;;;;14.79;81.90;99184.66;5035317;28;19921;-61
2021/08/02 07:14:33;;;;;;;;;;;;;;;15.04;80.16;99185.72;5035771;28;19917;-61
2021/08/02 07:16:58;;;;;;;;;;;;;;;15.53;78.65;99193.94;5035350;28;19921;-61
2021/08/02 07:19:23;;;;;;;;;;;;;;;15.82;76.70;99189.81;5035839;28;19928;-61
2021/08/02 07:21:49;;;;;;;;;;;;;;;15.24;79.12;99182.16;5035246;28;20445;-61
2021/08/02 07:24:14;;;;;;;;;;;;;;;15.01;79.84;99188.97;5035802;28;19921;-61
2021/08/02 07:26:39;;;;;;;;;;;;;;;15.12;79.93;99182.44;5035163;28;19928;-60
2021/08/02 07:29:04;;;;;;;;;;;;;;;14.97;80.44;99185.19;5035592;28;19917;-61
2021/08/02 07:31:29;;;;;;;;;;;;;;;14.82;80.38;99189.50;5034939;28;19921;-61
2021/08/02 07:33:55;;;;;;;;;;;;;;;14.82;81.14;99194.91;5035550;28;19917;-61
2021/08/02 07:36:20;;;;;;;;;;;;;;;14.86;80.82;99195.19;5035780;28;19921;-61
2021/08/02 07:38:45;;;;;;;;;;;;;;;14.84;80.44;99192.75;5035774;28;19913;-61
2021/08/02 07:41:11;;;;;;;;;;;;;;;14.88;80.69;99191.13;5034935;28;20297;-61
2021/08/02 07:43:36;;;;;;;;;;;;;;;15.26;78.83;99194.31;5035268;28;19995;-61
2021/08/02 07:46:01;;;;;;;;;;;;;;;15.17;79.04;99195.94;5041636;28;19928;-61
2021/08/02 07:48:27;;;;;;;;;;;;;;;15.31;78.44;99186.19;5015927;28;19917;-61
2021/08/02 07:50:52;;;;;;;;;;;;;;;15.20;79.02;99190.00;5022421;28;20279;-61
2021/08/02 07:53:17;;;;;;;;;;;;;;;15.18;79.04;99194.88;5035027;28;19956;-61
2021/08/02 07:55:46;;;;;;;;;;;;;;;15.83;77.54;99192.25;5034849;28;19928;-61
2021/08/02 07:58:11;;;;;;;;;;;;;;;15.48;78.75;99187.78;5067461;28;20303;-61
2021/08/02 08:00:36;;;;;;;;;;;;;;;15.45;78.05;99185.59;5034764;28;19921;-61
2021/08/02 08:03:14;;;;;;;;;;;;;;;15.48;78.28;99185.88;5034649;28;19928;-61
2021/08/02 08:05:39;;;;;;;;;;;;;;;15.48;78.52;99190.47;5034381;28;19927;-61
2021/08/02 08:08:05;;;;;;;;;;;;;;;15.91;77.23;99188.94;5034992;28;20430;-61
2021/08/02 08:10:30;;;;;;;;;;;;;;;16.12;75.58;99192.34;5033473;28;20018;-61
2021/08/02 08:12:55;;;;;;;;;;;;;;;15.82;76.08;99193.31;5034525;28;20261;-61
2021/08/02 08:15:22;;;;;;;;;;;;;;;17.91;69.08;99189.06;5034187;28;19922;-61
2021/08/02 08:17:47;;;;;;;;;;;;;;;17.73;68.90;99188.72;5034488;28;19917;-61
2021/08/02 08:20:14;;;;;;;;;;;;;;;19.25;63.27;99183.94;5033943;28;19924;-61
2021/08/02 08:22:39;;;;;;;;;;;;;;;17.67;68.56;99195.28;5034719;28;19940;-61
2021/08/02 08:25:04;;;;;;;;;;;;;;;18.69;66.63;99187.63;5034186;28;20371;-61
2021/08/02 08:27:30;;;;;;;;;;;;;;;18.91;63.69;99187.00;5033973;28;19963;-61
2021/08/02 08:29:55;;;;;;;;;;;;;;;19.94;61.57;99183.91;5034632;28;19917;-61
2021/08/02 08:32:20;;;;;;;;;;;;;;;19.80;61.48;99178.53;5032714;28;19929;-61
2021/08/02 08:34:46;;;;;;;;;;;;;;;21.37;56.67;99178.81;5034632;28;20387;-61
2021/08/02 08:37:11;;;;;;;;;;;;;;;21.90;53.34;99175.94;5034504;28;19921;-61
2021/08/02 08:39:36;;;;;;;;;;;;;;;20.44;57.10;99174.91;5034627;28;19928;-61
2021/08/02 08:42:02;;;;;;;;;;;;;;;19.95;60.50;99169.22;5033612;28;20329;-61
2021/08/02 08:44:27;;;;;;;;;;;;;;;21.90;55.41;99165.03;5034099;28;19928;-61
2021/08/02 08:46:52;;;;;;;;;;;;;;;18.09;65.12;99172.00;5033728;28;19948;-61
2021/08/02 08:49:18;;;;;;;;;;;;;;;17.08;69.91;99170.22;5034247;28;19940;-60
2021/08/02 08:51:43;;;;;;;;;;;;;;;17.08;71.83;99161.31;5033513;28;19964;-61
2021/08/02 08:54:09;;;;;;;;;;;;;;;17.66;72.64;99169.28;5032794;28;19917;-61
2021/08/02 08:56:34;;;;;;;;;;;;;;;16.86;76.03;99165.28;5032335;28;19929;-62
2021/08/02 08:59:00;;;;;;;;;;;;;;;16.83;78.76;99171.28;5033990;28;19971;-62
2021/08/02 09:01:26;;;;;;;;;;;;;;;16.74;76.73;99173.75;5033639;28;19921;-62
2021/08/02 09:03:52;;;;;;;;;;;;;;;16.41;78.53;99169.97;5033839;28;19921;-62
2021/08/02 09:06:17;;;;;;;;;;;;;;;16.29;79.01;99172.22;5033423;28;20329;-62
2021/08/02 09:08:43;;;;;;;;;;;;;;;16.42;80.01;99179.69;5033741;28;19918;-62
2021/08/02 09:11:08;;;;;;;;;;;;;;;16.18;79.12;99172.31;5033122;28;20323;-62
2021/08/02 09:13:34;;;;;;;;;;;;;;;16.76;76.47;99174.28;5034536;28;19924;-61
2021/08/02 09:16:38;;;;;;;;;;;;;;;17.24;78.78;99166.25;5033177;28;19951;-62
2021/08/02 09:19:04;;;;;;;;;;;;;;;17.48;76.52;99172.78;4992096;28;20380;-62
2021/08/02 09:21:58;;;;;;;;;;;;;;;17.18;81.24;99172.03;5003735;28;19922;-62
2021/08/02 09:24:27;;;;;;;;;;;;;;;17.18;76.04;99180.16;5021653;28;20390;-63
2021/08/02 09:26:52;;;;;;;;;;;;;;;17.12;78.91;99184.00;5033075;28;19945;-62
2021/08/02 09:29:25;;;;;;;;;;;;;;;17.10;77.30;99180.75;5048817;28;19921;-62
2021/08/02 09:31:51;;;;;;;;;;;;;;;16.84;76.37;99167.47;5033209;28;19921;-62
2021/08/02 09:34:16;;;;;;;;;;;;;;;16.61;78.31;99164.41;5033371;28;20000;-62
2021/08/02 09:36:42;;;;;;;;;;;;;;;16.61;78.56;99158.19;5032921;28;19917;-62
2021/08/02 09:39:11;;;;;;;;;;;;;;;16.88;78.86;99163.13;5033004;28;19917;-62
2021/08/02 09:41:36;;;;;;;;;;;;;;;17.45;78.33;99149.78;5032330;28;19921;-62
2021/08/02 09:44:03;;;;;;;;;;;;;;;17.87;75.72;99146.28;5033434;28;19914;-61
2021/08/02 09:46:28;;;;;;;;;;;;;;;18.07;73.97;99152.50;5033072;28;20012;-61
2021/08/02 09:48:59;;;;;;;;;;;;;;;19.00;70.92;99154.56;5033210;28;19975;-61
2021/08/02 09:51:24;;;;;;;;;;;;;;;20.78;66.07;99149.84;5032959;28;20416;-61
2021/08/02 09:53:50;;;;;;;;;;;;;;;22.21;64.65;99155.91;5033465;28;19917;-61
2021/08/02 09:56:16;;;;;;;;;;;;;;;21.57;63.32;99150.19;5033007;28;19940;-62
2021/08/02 09:58:42;;;;;;;;;;;;;;;21.96;60.92;99152.03;5033422;28;19925;-61
2021/08/02 10:01:08;;;;;;;;;;;;;;;21.16;63.52;99154.84;5032898;28;19917;-61
2021/08/02 10:03:33;;;;;;;;;;;;;;;21.11;63.94;99149.53;5033017;28;19928;-61
2021/08/02 10:05:58;;;;;;;;;;;;;;;21.68;60.39;99146.06;5032782;28;19928;-61
2021/08/02 10:08:24;;;;;;;;;;;;;;;22.78;56.78;99154.88;5032146;28;19921;-61
2021/08/02 10:10:49;;;;;;;;;;;;;;;24.48;51.24;99158.47;5032894;28;19959;-61
2021/08/02 10:13:21;;;;;;;;;;;;;;;23.97;52.54;99165.97;5033146;28;20301;-61
2021/08/02 10:15:49;;;;;;;;;;;;;;;22.34;54.75;99167.78;5032775;28;19975;-61
2021/08/02 10:18:16;;;;;;;;;;;;;;;21.41;57.00;99163.47;5033494;28;20003;-61
2021/08/02 10:20:41;;;;;;;;;;;;;;;22.06;57.87;99159.91;5032700;28;19928;-61
2021/08/02 10:23:06;;;;;;;;;;;;;;;22.19;56.61;99160.88;5032818;28;19933;-61
2021/08/02 10:25:32;;;;;;;;;;;;;;;22.17;53.39;99163.94;5031422;28;19927;-61
2021/08/02 10:28:07;;;;;;;;;;;;;;;21.51;57.10;99163.97;5033497;28;19963;-61
2021/08/02 10:30:32;;;;;;;;;;;;;;;20.07;58.24;99162.44;5032622;28;20282;-61
2021/08/02 10:32:58;;;;;;;;;;;;;;;19.36;61.19;99154.66;5033068;28;20012;-61
2021/08/02 10:35:42;;;;;;;;;;;;;;;18.19;67.77;99163.69;5032408;28;19921;-60
2021/08/02 10:38:08;;;;;;;;;;;;;;;17.17;70.54;99162.28;5032870;28;19913;-61
2021/08/02 10:40:43;;;;;;;;;;;;;;;16.95;71.99;99169.00;5035354;28;19921;-60
2021/08/02 10:43:08;;;;;;;;;;;;;;;16.74;73.33;99162.94;5036379;28;19917;-60
2021/08/02 10:45:34;;;;;;;;;;;;;;;16.68;73.92;99157.88;5036015;28;19948;-60
2021/08/02 10:47:59;;;;;;;;;;;;;;;16.63;75.88;99156.00;5036836;28;19913;-61
2021/08/02 10:50:26;;;;;;;;;;;;;;;16.78;75.27;99157.81;5036028;28;19921;-61
2021/08/02 10:52:52;;;;;;;;;;;;;;;16.43;75.76;99165.09;5036272;28;19917;-60
2021/08/02 10:55:17;;;;;;;;;;;;;;;16.64;74.56;99163.03;5034636;28;20459;-60
2021/08/02 10:57:42;;;;;;;;;;;;;;;16.88;73.79;99163.13;5036437;28;19960;-61
2021/08/02 11:00:18;;;;;;;;;;;;;;;17.29;72.81;99159.97;5035854;28;19924;-60
2021/08/02 11:02:47;;;;;;;;;;;;;;;17.48;71.42;99157.31;5036143;28;19956;-60
2021/08/02 11:05:12;;;;;;;;;;;;;;;17.50;70.84;99157.84;5034590;28;20367;-61
2021/08/02 11:07:38;;;;;;;;;;;;;;;17.17;70.57;99154.97;5036090;28;19962;-60
2021/08/02 11:10:05;;;;;;;;;;;;;;;17.28;71.34;99158.38;5034333;28;20403;-60
2021/08/02 11:12:31;;;;;;;;;;;;;;;17.40;71.26;99155.25;5036398;28;19917;-60
2021/08/02 11:14:56;;;;;;;;;;;;;;;17.56;71.17;99153.97;5036183;28;20379;-62
2021/08/02 11:17:22;;;;;;;;;;;;;;;17.64;70.32;99157.94;5034291;28;19921;-60
2021/08/02 11:19:47;;;;;;;;;;;;;;;17.54;70.19;99152.63;5035818;28;19914;-59
2021/08/02 11:22:12;;;;;;;;;;;;;;;17.22;69.76;99154.09;5035587;28;19921;-62
2021/08/02 11:24:44;;;;;;;;;;;;;;;17.15;70.07;99151.75;5035828;28;20279;-60
2021/08/02 11:27:10;;;;;;;;;;;;;;;16.93;71.89;99152.25;5033926;28;19922;-60
2021/08/02 11:29:39;;;;;;;;;;;;;;;17.27;71.50;99148.63;5035534;28;19924;-60
2021/08/02 11:32:05;;;;;;;;;;;;;;;17.21;71.56;99145.16;5035281;28;19921;-59
2021/08/02 11:34:30;;;;;;;;;;;;;;;17.57;70.89;99146.63;5035735;28;19924;-60
2021/08/02 11:36:59;;;;;;;;;;;;;;;17.36;70.82;99138.75;5035264;28;20287;-60
2021/08/02 11:39:25;;;;;;;;;;;;;;;17.32;70.44;99147.75;5035861;28;19967;-60
2021/08/02 11:42:05;;;;;;;;;;;;;;;17.82;69.71;99153.66;5034987;28;19945;-60
2021/08/02 11:44:30;;;;;;;;;;;;;;;17.78;68.99;99153.41;5035304;28;19962;-60
2021/08/02 11:46:56;;;;;;;;;;;;;;;17.96;69.25;99151.03;5033816;28;19917;-60
2021/08/02 11:49:21;;;;;;;;;;;;;;;17.57;70.66;99142.03;5034173;28;19917;-60
2021/08/02 11:51:46;;;;;;;;;;;;;;;17.84;69.19;99135.19;5032437;28;19921;-61
2021/08/02 11:54:20;;;;;;;;;;;;;;;17.86;69.61;99138.44;5034288;28;19924;-61
2021/08/02 11:56:46;;;;;;;;;;;;;;;18.06;70.37;99140.03;5034855;28;20016;-61
2021/08/02 11:59:24;;;;;;;;;;;;;;;18.58;68.94;99138.13;5035321;28;19917;-60
2021/08/02 12:01:51;;;;;;;;;;;;;;;18.53;68.09;99140.94;5034853;28;20289;-60
2021/08/02 12:04:17;;;;;;;;;;;;;;;18.31;69.31;99150.50;5033638;28;19921;-59
2021/08/02 12:06:48;;;;;;;;;;;;;;;18.54;69.23;99166.97;5034608;28;19944;-60
2021/08/02 12:09:13;;;;;;;;;;;;;;;18.40;69.72;99169.63;5035162;28;19918;-60
2021/08/02 12:11:41;;;;;;;;;;;;;;;17.80;77.62;99172.94;5034443;28;19929;-60
2021/08/02 12:14:07;;;;;;;;;;;;;;;17.15;81.07;99173.41;5034949;28;20371;-62
2021/08/02 12:16:33;;;;;;;;;;;;;;;16.74;79.02;99172.94;5034609;28;19947;-61
2021/08/02 12:19:10;;;;;;;;;;;;;;;16.32;79.20;99175.16;5065594;28;21339;-61
2021/08/02 12:21:36;;;;;;;;;;;;;;;16.18;84.19;99190.44;5034021;28;19972;-62
2021/08/02 12:24:02;;;;;;;;;;;;;;;16.09;84.92;99190.19;5034913;28;19947;-62
2021/08/02 12:26:28;;;;;;;;;;;;;;;15.76;82.89;99178.22;5034317;28;19921;-61
2021/08/02 12:28:53;;;;;;;;;;;;;;;15.83;81.58;99176.03;5033527;28;19924;-62
2021/08/02 12:31:21;;;;;;;;;;;;;;;15.59;80.65;99170.41;5034009;28;19922;-61
2021/08/02 12:33:46;;;;;;;;;;;;;;;15.50;78.63;99167.50;5034582;28;19931;-61
2021/08/02 12:36:12;;;;;;;;;;;;;;;15.50;78.53;99162.09;5034199;28;20011;-61
2021/08/02 12:38:41;;;;;;;;;;;;;;;15.69;79.94;99170.41;5034620;28;19972;-62
2021/08/02 12:41:07;;;;;;;;;;;;;;;15.99;78.04;99163.22;5034550;28;19964;-61
2021/08/02 12:43:33;;;;;;;;;;;;;;;16.71;77.62;99168.91;5034343;28;19925;-61